createdAt,value
2018-08-19T00:00:37.866Z,0
2018-08-19T00:01:37.794Z,0
2018-08-19T00:02:37.792Z,0
2018-08-19T00:03:37.869Z,0
2018-08-19T00:04:37.800Z,0
2018-08-19T00:05:37.866Z,0
2018-08-19T00:06:37.796Z,0
2018-08-19T00:07:37.869Z,0
2018-08-19T00:08:37.868Z,0
2018-08-19T00:09:37.795Z,0
2018-08-19T00:10:37.771Z,0
2018-08-19T00:11:37.823Z,0
2018-08-19T00:12:37.774Z,0
2018-08-19T00:13:37.775Z,0
2018-08-19T00:14:37.865Z,0
2018-08-19T00:15:37.823Z,0
2018-08-19T00:16:37.776Z,0
2018-08-19T00:17:37.772Z,0
2018-08-19T00:18:37.864Z,0
2018-08-19T00:19:37.846Z,0
2018-08-19T00:20:37.877Z,0
2018-08-19T00:21:37.879Z,0
2018-08-19T00:22:37.835Z,0
2018-08-19T00:23:37.880Z,0
2018-08-19T00:24:37.810Z,0
2018-08-19T00:25:37.878Z,0
2018-08-19T00:26:37.911Z,0
2018-08-19T00:27:37.839Z,0
2018-08-19T00:28:37.823Z,0
2018-08-19T00:29:37.884Z,0
2018-08-19T00:30:37.817Z,0
2018-08-19T00:31:37.884Z,0
2018-08-19T00:32:37.830Z,0
2018-08-19T00:33:37.923Z,0
2018-08-19T00:34:37.815Z,0
2018-08-19T00:35:37.886Z,0
2018-08-19T00:36:37.888Z,0
2018-08-19T00:37:37.887Z,0
2018-08-19T00:38:37.887Z,0
2018-08-19T00:39:37.916Z,0
2018-08-19T00:40:37.910Z,0
2018-08-19T00:41:37.819Z,0
2018-08-19T00:42:37.891Z,0
2018-08-19T00:43:37.826Z,0
2018-08-19T00:44:37.892Z,0
2018-08-19T00:45:37.898Z,0
2018-08-19T00:46:37.824Z,0
2018-08-19T00:47:37.894Z,0
2018-08-19T00:48:37.825Z,0
2018-08-19T00:49:37.895Z,0
2018-08-19T00:50:37.847Z,0
2018-08-19T00:51:37.826Z,0
2018-08-19T00:52:37.901Z,0
2018-08-19T00:53:37.830Z,0
2018-08-19T00:54:37.899Z,0
2018-08-19T00:55:37.835Z,0
2018-08-19T00:56:37.867Z,0
2018-08-19T00:57:37.901Z,0
2018-08-19T00:58:37.837Z,0
2018-08-19T00:59:37.904Z,0
2018-08-19T01:00:37.842Z,0
2018-08-19T01:01:38.060Z,0
2018-08-19T01:02:37.840Z,0
2018-08-19T01:03:37.911Z,0
2018-08-19T01:04:37.906Z,0
2018-08-19T01:05:37.907Z,0
2018-08-19T01:06:37.906Z,0
2018-08-19T01:07:37.907Z,0
2018-08-19T01:08:37.841Z,0
2018-08-19T01:09:37.932Z,0
2018-08-19T01:10:37.845Z,0
2018-08-19T01:11:37.842Z,0
2018-08-19T01:12:37.918Z,0
2018-08-19T01:13:37.846Z,0
2018-08-19T01:14:37.914Z,0
2018-08-19T01:15:37.920Z,0
2018-08-19T01:16:37.915Z,0
2018-08-19T01:17:37.846Z,0
2018-08-19T01:18:37.917Z,0
2018-08-19T01:19:37.930Z,0
2018-08-19T01:20:37.854Z,0
2018-08-19T01:21:37.918Z,0
2018-08-19T01:22:37.922Z,0
2018-08-19T01:23:37.850Z,0
2018-08-19T01:24:37.921Z,0
2018-08-19T01:25:37.852Z,0
2018-08-19T01:26:37.856Z,0
2018-08-19T01:27:37.923Z,0
2018-08-19T01:28:37.860Z,0
2018-08-19T01:29:37.924Z,0
2018-08-19T01:30:37.933Z,0
2018-08-19T01:31:37.924Z,0
2018-08-19T01:32:37.955Z,0
2018-08-19T01:33:37.927Z,0
2018-08-19T01:34:37.938Z,0
2018-08-19T01:35:37.860Z,0
2018-08-19T01:36:37.893Z,0
2018-08-19T01:37:37.856Z,0
2018-08-19T01:38:37.931Z,0
2018-08-19T01:39:37.932Z,0
2018-08-19T01:40:37.933Z,0
2018-08-19T01:41:37.934Z,0
2018-08-19T01:42:37.863Z,0
2018-08-19T01:43:37.858Z,0
2018-08-19T01:44:37.934Z,0
2018-08-19T01:45:37.938Z,0
2018-08-19T01:46:37.938Z,0
2018-08-19T01:47:37.872Z,0
2018-08-19T01:48:37.941Z,0
2018-08-19T01:49:37.939Z,0
2018-08-19T01:50:37.866Z,0
2018-08-19T01:51:37.887Z,0
2018-08-19T01:52:37.836Z,0
2018-08-19T01:53:37.807Z,0
2018-08-19T01:54:37.804Z,0
2018-08-19T01:55:37.937Z,0
2018-08-19T01:56:37.869Z,0
2018-08-19T01:57:37.847Z,0
2018-08-19T01:58:37.857Z,0
2018-08-19T01:59:37.893Z,0
2018-08-19T02:00:37.891Z,0
2018-08-19T02:01:37.952Z,0
2018-08-19T02:02:37.953Z,0
2018-08-19T02:03:37.888Z,0
2018-08-19T02:04:37.949Z,0
2018-08-19T02:05:37.881Z,0
2018-08-19T02:06:37.950Z,0
2018-08-19T02:07:37.879Z,0
2018-08-19T02:08:37.949Z,0
2018-08-19T02:09:37.954Z,0
2018-08-19T02:10:37.850Z,0
2018-08-19T02:11:37.817Z,0
2018-08-19T02:12:37.919Z,0
2018-08-19T02:13:37.862Z,0
2018-08-19T02:14:37.842Z,0
2018-08-19T02:15:37.944Z,0
2018-08-19T02:16:37.926Z,0
2018-08-19T02:17:37.858Z,0
2018-08-19T02:18:37.864Z,0
2018-08-19T02:19:37.948Z,0
2018-08-19T02:20:37.913Z,0
2018-08-19T02:21:37.948Z,0
2018-08-19T02:22:37.845Z,0
2018-08-19T02:23:37.864Z,0
2018-08-19T02:24:37.866Z,0
2018-08-19T02:25:37.868Z,0
2018-08-19T02:26:37.929Z,0
2018-08-19T02:27:37.868Z,0
2018-08-19T02:28:37.957Z,0
2018-08-19T02:29:37.829Z,0
2018-08-19T02:30:37.935Z,0
2018-08-19T02:31:37.874Z,0
2018-08-19T02:32:37.871Z,0
2018-08-19T02:34:37.960Z,0
2018-08-19T02:35:37.931Z,0
2018-08-19T02:36:37.960Z,0
2018-08-19T02:37:37.933Z,0
2018-08-19T02:38:37.911Z,0
2018-08-19T02:39:37.937Z,0
2018-08-19T02:40:37.978Z,0
2018-08-19T02:41:37.975Z,0
2018-08-19T02:42:37.978Z,0
2018-08-19T02:43:38.036Z,0
2018-08-19T02:44:37.912Z,0
2018-08-19T02:45:37.979Z,0
2018-08-19T02:46:37.913Z,0
2018-08-19T02:47:37.915Z,0
2018-08-19T02:48:38.015Z,0
2018-08-19T02:49:37.915Z,0
2018-08-19T02:50:37.946Z,0
2018-08-19T02:51:37.926Z,0
2018-08-19T02:52:37.948Z,0
2018-08-19T02:53:37.977Z,0
2018-08-19T02:54:37.930Z,0
2018-08-19T02:55:37.951Z,0
2018-08-19T02:56:37.884Z,0
2018-08-19T02:57:37.941Z,0
2018-08-19T02:58:37.974Z,0
2018-08-19T02:59:37.888Z,0
2018-08-19T03:00:37.837Z,0
2018-08-19T03:01:37.939Z,0
2018-08-19T03:02:37.841Z,0
2018-08-19T03:03:37.884Z,0
2018-08-19T03:04:37.890Z,0
2018-08-19T03:05:37.935Z,0
2018-08-19T03:06:37.939Z,0
2018-08-19T03:07:37.860Z,0
2018-08-19T03:08:37.933Z,0
2018-08-19T03:09:37.889Z,0
2018-08-19T03:10:37.922Z,0
2018-08-19T03:11:37.999Z,0
2018-08-19T03:12:38.208Z,0
2018-08-19T03:13:37.955Z,0
2018-08-19T03:14:37.933Z,0
2018-08-19T03:15:37.997Z,0
2018-08-19T03:16:37.996Z,0
2018-08-19T03:17:37.933Z,0
2018-08-19T03:18:38.000Z,0
2018-08-19T03:19:37.932Z,0
2018-08-19T03:20:38.002Z,0
2018-08-19T03:21:37.939Z,0
2018-08-19T03:22:38.005Z,0
2018-08-19T03:23:37.939Z,0
2018-08-19T03:24:37.937Z,0
2018-08-19T03:25:38.003Z,0
2018-08-19T03:26:37.941Z,0
2018-08-19T03:27:38.007Z,0
2018-08-19T03:28:38.017Z,0
2018-08-19T03:29:37.941Z,0
2018-08-19T03:30:37.957Z,0
2018-08-19T03:31:37.895Z,0
2018-08-19T03:32:37.940Z,0
2018-08-19T03:33:37.975Z,4
2018-08-19T03:34:37.917Z,4
2018-08-19T03:35:37.956Z,4
2018-08-19T03:36:37.991Z,4
2018-08-19T03:37:37.939Z,4
2018-08-19T03:38:37.973Z,4
2018-08-19T03:39:37.982Z,8
2018-08-19T03:40:38.051Z,8
2018-08-19T03:41:37.907Z,8
2018-08-19T03:42:37.949Z,8
2018-08-19T03:43:37.882Z,12
2018-08-19T03:44:38.001Z,12
2018-08-19T03:45:37.996Z,16
2018-08-19T03:46:37.947Z,20
2018-08-19T03:47:37.984Z,24
2018-08-19T03:48:37.968Z,28
2018-08-19T03:49:37.889Z,28
2018-08-19T03:50:38.023Z,36
2018-08-19T03:51:37.907Z,44
2018-08-19T03:52:38.022Z,52
2018-08-19T03:53:37.952Z,56
2018-08-19T03:54:37.955Z,68
2018-08-19T03:55:38.026Z,80
2018-08-19T03:56:37.958Z,88
2018-08-19T03:57:38.083Z,104
2018-08-19T03:58:38.039Z,120
2018-08-19T03:59:37.953Z,140
2018-08-19T04:00:38.030Z,160
2018-08-19T04:01:37.958Z,180
2018-08-19T04:02:38.029Z,208
2018-08-19T04:03:37.966Z,232
2018-08-19T04:04:38.032Z,268
2018-08-19T04:05:38.034Z,300
2018-08-19T04:06:37.962Z,340
2018-08-19T04:07:37.962Z,380
2018-08-19T04:08:38.035Z,420
2018-08-19T04:09:38.036Z,464
2018-08-19T04:10:37.970Z,520
2018-08-19T04:11:37.981Z,568
2018-08-19T04:12:38.038Z,624
2018-08-19T04:13:37.968Z,676
2018-08-19T04:14:37.969Z,736
2018-08-19T04:15:37.977Z,800
2018-08-19T04:16:38.043Z,868
2018-08-19T04:17:38.042Z,940
2018-08-19T04:18:37.976Z,1016
2018-08-19T04:19:37.976Z,1100
2018-08-19T04:20:38.003Z,1188
2018-08-19T04:21:37.977Z,1276
2018-08-19T04:22:37.987Z,1360
2018-08-19T04:23:38.104Z,1452
2018-08-19T04:24:38.065Z,1568
2018-08-19T04:25:38.058Z,1688
2018-08-19T04:26:37.984Z,1796
2018-08-19T04:27:38.046Z,1908
2018-08-19T04:28:37.977Z,2032
2018-08-19T04:29:38.050Z,2168
2018-08-19T04:30:38.001Z,2284
2018-08-19T04:31:37.980Z,2380
2018-08-19T04:32:38.048Z,2484
2018-08-19T04:33:38.052Z,2600
2018-08-19T04:34:38.052Z,2736
2018-08-19T04:35:37.984Z,2924
2018-08-19T04:36:38.066Z,3140
2018-08-19T04:37:38.055Z,3372
2018-08-19T04:38:37.977Z,3572
2018-08-19T04:39:38.061Z,3748
2018-08-19T04:40:38.021Z,3904
2018-08-19T04:41:37.977Z,4056
2018-08-19T04:42:38.003Z,4200
2018-08-19T04:43:38.000Z,4312
2018-08-19T04:44:37.957Z,4404
2018-08-19T04:45:38.043Z,4480
2018-08-19T04:46:37.933Z,4560
2018-08-19T04:47:38.046Z,4668
2018-08-19T04:48:38.005Z,4808
2018-08-19T04:49:38.024Z,4972
2018-08-19T04:50:38.001Z,5144
2018-08-19T04:51:38.057Z,5300
2018-08-19T04:52:37.938Z,5448
2018-08-19T04:53:37.993Z,5584
2018-08-19T04:54:38.053Z,5728
2018-08-19T04:55:37.928Z,5868
2018-08-19T04:56:37.976Z,6028
2018-08-19T04:57:38.106Z,6208
2018-08-19T04:58:37.970Z,6388
2018-08-19T04:59:37.946Z,6612
2018-08-19T05:00:38.026Z,6860
2018-08-19T05:01:37.961Z,7116
2018-08-19T05:02:38.030Z,7368
2018-08-19T05:03:37.962Z,7576
2018-08-19T05:04:37.980Z,7772
2018-08-19T05:05:38.027Z,7936
2018-08-19T05:06:38.029Z,8076
2018-08-19T05:07:37.989Z,8212
2018-08-19T05:08:37.955Z,8348
2018-08-19T05:09:38.004Z,8484
2018-08-19T05:10:38.007Z,8616
2018-08-19T05:11:38.005Z,8748
2018-08-19T05:12:38.079Z,8896
2018-08-19T05:13:38.077Z,9052
2018-08-19T05:14:38.011Z,9236
2018-08-19T05:15:38.129Z,9396
2018-08-19T05:16:38.054Z,9584
2018-08-19T05:17:38.024Z,9740
2018-08-19T05:18:38.083Z,9888
2018-08-19T05:19:38.011Z,10044
2018-08-19T05:20:38.081Z,10204
2018-08-19T05:21:38.018Z,10352
2018-08-19T05:22:38.119Z,10504
2018-08-19T05:23:38.085Z,10648
2018-08-19T05:24:38.031Z,10808
2018-08-19T05:25:38.088Z,10952
2018-08-19T05:26:38.019Z,11096
2018-08-19T05:27:38.019Z,11252
2018-08-19T05:28:38.091Z,11408
2018-08-19T05:29:38.093Z,11560
2018-08-19T05:30:38.092Z,11708
2018-08-19T05:31:38.188Z,11852
2018-08-19T05:32:38.021Z,11992
2018-08-19T05:33:38.093Z,12152
2018-08-19T05:34:38.027Z,12304
2018-08-19T05:35:38.094Z,12448
2018-08-19T05:36:38.028Z,12608
2018-08-19T05:37:38.095Z,12756
2018-08-19T05:38:38.099Z,12884
2018-08-19T05:39:38.027Z,13024
2018-08-19T05:40:38.066Z,13172
2018-08-19T05:41:38.121Z,13300
2018-08-19T05:42:38.024Z,13424
2018-08-19T05:43:38.041Z,13536
2018-08-19T05:44:38.026Z,13628
2018-08-19T05:45:38.008Z,13744
2018-08-19T05:46:38.032Z,13860
2018-08-19T05:47:37.983Z,13980
2018-08-19T05:48:37.983Z,14108
2018-08-19T05:49:38.069Z,14292
2018-08-19T05:50:37.964Z,18560
2018-08-19T05:51:38.067Z,25664
2018-08-19T05:52:38.044Z,28256
2018-08-19T05:53:38.174Z,29952
2018-08-19T05:54:38.095Z,30976
2018-08-19T05:55:38.020Z,31296
2018-08-19T05:56:38.071Z,30880
2018-08-19T05:57:38.047Z,30304
2018-08-19T05:58:38.057Z,29088
2018-08-19T05:59:38.096Z,28896
2018-08-19T06:00:37.947Z,30048
2018-08-19T06:01:38.002Z,31968
2018-08-19T06:02:37.960Z,33632
2018-08-19T06:03:38.006Z,34720
2018-08-19T06:04:37.963Z,35552
2018-08-19T06:05:38.010Z,36480
2018-08-19T06:06:38.016Z,37600
2018-08-19T06:07:38.097Z,38560
2018-08-19T06:08:37.970Z,39136
2018-08-19T06:09:38.059Z,39264
2018-08-19T06:10:38.016Z,38944
2018-08-19T06:11:38.063Z,38432
2018-08-19T06:12:37.951Z,38304
2018-08-19T06:13:38.052Z,38944
2018-08-19T06:14:38.054Z,39872
2018-08-19T06:15:38.062Z,40768
2018-08-19T06:16:38.019Z,41792
2018-08-19T06:17:38.017Z,42848
2018-08-19T06:18:38.023Z,43776
2018-08-19T06:19:38.083Z,44736
2018-08-19T06:20:38.066Z,45504
2018-08-19T06:21:38.146Z,45568
2018-08-19T06:22:38.058Z,45280
2018-08-19T06:23:38.128Z,44736
2018-08-19T06:24:38.112Z,44160
2018-08-19T06:25:38.053Z,44096
2018-08-19T06:26:38.134Z,44768
2018-08-19T06:27:38.132Z,46080
2018-08-19T06:28:38.133Z,47616
2018-08-19T06:29:38.102Z,48448
2018-08-19T06:30:38.136Z,48256
2018-08-19T06:31:38.076Z,47936
2018-08-19T06:32:38.025Z,47968
2018-08-19T06:33:37.986Z,48160
2018-08-19T06:34:38.041Z,49120
2018-08-19T06:35:37.967Z,50560
2018-08-19T06:36:38.122Z,53312
2018-08-19T06:37:38.088Z,55552
2018-08-19T06:38:38.077Z,56768
2018-08-19T06:39:38.081Z,56800
2018-08-19T06:40:37.974Z,56608
2018-08-19T06:41:38.012Z,56672
2018-08-19T06:42:38.050Z,56576
2018-08-19T06:43:38.100Z,56800
2018-08-19T06:44:37.994Z,57376
2018-08-19T06:45:38.101Z,57952
2018-08-19T06:46:38.069Z,57856
2018-08-19T06:47:38.101Z,57760
2018-08-19T06:48:37.997Z,57312
2018-08-19T06:49:38.044Z,57536
2018-08-19T06:50:38.071Z,57504
2018-08-19T06:51:38.093Z,57280
2018-08-19T06:52:38.145Z,56288
2018-08-19T06:53:38.085Z,55360
2018-08-19T06:54:38.078Z,54848
2018-08-19T06:55:38.152Z,55360
2018-08-19T06:56:38.106Z,57184
2018-08-19T06:57:38.079Z,60352
2018-08-19T06:58:38.108Z,64512
2018-08-19T06:59:38.156Z,68576
2018-08-19T07:00:38.083Z,71104
2018-08-19T07:01:38.036Z,71520
2018-08-19T07:02:38.152Z,70528
2018-08-19T07:03:38.117Z,67872
2018-08-19T07:04:38.046Z,64800
2018-08-19T07:05:38.114Z,62528
2018-08-19T07:06:38.156Z,62400
2018-08-19T07:07:38.086Z,64128
2018-08-19T07:08:38.158Z,66240
2018-08-19T07:09:38.096Z,68480
2018-08-19T07:10:38.160Z,70016
2018-08-19T07:11:38.084Z,70912
2018-08-19T07:12:38.185Z,71360
2018-08-19T07:13:38.087Z,70752
2018-08-19T07:14:38.183Z,70528
2018-08-19T07:15:38.210Z,70400
2018-08-19T07:16:38.156Z,70816
2018-08-19T07:17:38.089Z,71744
2018-08-19T07:18:38.280Z,72672
2018-08-19T07:19:38.191Z,73920
2018-08-19T07:20:38.098Z,74848
2018-08-19T07:21:38.168Z,75904
2018-08-19T07:22:38.095Z,77376
2018-08-19T07:23:38.135Z,77824
2018-08-19T07:24:38.170Z,76992
2018-08-19T07:25:38.098Z,76448
2018-08-19T07:26:38.171Z,75328
2018-08-19T07:27:38.102Z,73728
2018-08-19T07:28:38.178Z,74144
2018-08-19T07:29:38.163Z,73504
2018-08-19T07:30:38.168Z,73088
2018-08-19T07:31:38.126Z,73088
2018-08-19T07:32:38.133Z,73824
2018-08-19T07:33:38.115Z,76288
2018-08-19T07:34:38.142Z,79456
2018-08-19T07:35:38.034Z,81728
2018-08-19T07:36:38.069Z,82784
2018-08-19T07:37:38.134Z,83616
2018-08-19T07:38:38.106Z,82528
2018-08-19T07:39:38.106Z,80416
2018-08-19T07:40:38.050Z,79232
2018-08-19T07:41:38.130Z,77952
2018-08-19T07:42:38.061Z,78208
2018-08-19T07:43:38.150Z,79488
2018-08-19T07:44:38.181Z,81664
2018-08-19T07:45:38.145Z,84512
2018-08-19T07:46:38.084Z,87136
2018-08-19T07:47:38.170Z,88736
2018-08-19T07:48:38.174Z,90016
2018-08-19T07:49:38.175Z,90112
2018-08-19T07:50:38.171Z,89312
2018-08-19T07:51:38.196Z,88128
2018-08-19T07:52:38.071Z,87808
2018-08-19T07:53:38.162Z,88160
2018-08-19T07:54:38.092Z,88736
2018-08-19T07:55:38.191Z,90304
2018-08-19T07:56:38.095Z,91584
2018-08-19T07:57:38.090Z,92864
2018-08-19T07:58:38.193Z,93376
2018-08-19T07:59:38.095Z,93280
2018-08-19T08:00:38.212Z,93024
2018-08-19T08:01:38.073Z,92256
2018-08-19T08:02:38.183Z,91456
2018-08-19T08:03:38.185Z,90528
2018-08-19T08:04:38.079Z,91296
2018-08-19T08:05:38.163Z,93248
2018-08-19T08:06:38.076Z,95136
2018-08-19T08:07:38.199Z,96128
2018-08-19T08:08:38.111Z,97088
2018-08-19T08:09:38.191Z,97696
2018-08-19T08:10:38.085Z,97056
2018-08-19T08:11:38.203Z,97088
2018-08-19T08:12:38.133Z,97024
2018-08-19T08:13:38.203Z,96064
2018-08-19T08:14:38.130Z,94560
2018-08-19T08:15:38.205Z,94368
2018-08-19T08:16:38.217Z,95616
2018-08-19T08:17:38.207Z,99360
2018-08-19T08:18:38.134Z,101920
2018-08-19T08:19:38.422Z,104064
2018-08-19T08:20:38.213Z,106176
2018-08-19T08:21:38.435Z,105408
2018-08-19T08:22:38.136Z,103840
2018-08-19T08:23:38.106Z,102144
2018-08-19T08:24:38.072Z,101248
2018-08-19T08:25:38.151Z,99328
2018-08-19T08:26:38.167Z,98720
2018-08-19T08:27:38.083Z,101408
2018-08-19T08:28:38.173Z,106016
2018-08-19T08:29:38.097Z,110368
2018-08-19T08:30:38.163Z,113248
2018-08-19T08:31:38.216Z,114112
2018-08-19T08:32:38.140Z,112800
2018-08-19T08:33:38.142Z,110176
2018-08-19T08:34:38.221Z,107744
2018-08-19T08:35:38.281Z,105920
2018-08-19T08:36:38.220Z,104608
2018-08-19T08:37:38.150Z,105088
2018-08-19T08:38:38.223Z,106560
2018-08-19T08:39:38.150Z,110112
2018-08-19T08:40:38.247Z,113984
2018-08-19T08:41:38.127Z,115840
2018-08-19T08:42:38.152Z,116448
2018-08-19T08:43:38.109Z,114112
2018-08-19T08:44:38.156Z,110496
2018-08-19T08:45:38.137Z,107808
2018-08-19T08:46:38.209Z,107712
2018-08-19T08:47:38.344Z,109728
2018-08-19T08:48:38.211Z,113088
2018-08-19T08:49:38.178Z,116608
2018-08-19T08:50:38.193Z,119840
2018-08-19T08:51:38.171Z,121216
2018-08-19T08:52:38.221Z,121440
2018-08-19T08:53:38.109Z,121024
2018-08-19T08:54:38.159Z,117760
2018-08-19T08:55:38.161Z,113792
2018-08-19T08:56:38.192Z,110784
2018-08-19T08:57:38.119Z,108448
2018-08-19T08:58:38.221Z,106656
2018-08-19T08:59:38.209Z,107552
2018-08-19T09:00:38.197Z,111040
2018-08-19T09:01:38.161Z,116384
2018-08-19T09:02:38.254Z,121024
2018-08-19T09:03:38.238Z,124448
2018-08-19T09:04:38.169Z,125696
2018-08-19T09:05:38.165Z,124224
2018-08-19T09:06:38.245Z,121184
2018-08-19T09:07:38.242Z,119136
2018-08-19T09:08:38.170Z,117984
2018-08-19T09:09:38.245Z,117504
2018-08-19T09:10:38.172Z,118272
2018-08-19T09:11:38.132Z,118400
2018-08-19T09:12:38.168Z,117952
2018-08-19T09:13:38.098Z,117664
2018-08-19T09:14:38.201Z,119776
2018-08-19T09:15:38.276Z,123584
2018-08-19T09:16:38.170Z,125824
2018-08-19T09:17:38.207Z,126816
2018-08-19T09:18:38.091Z,126272
2018-08-19T09:19:38.210Z,123232
2018-08-19T09:20:38.137Z,120224
2018-08-19T09:21:38.214Z,118176
2018-08-19T09:22:38.151Z,118560
2018-08-19T09:23:38.130Z,120160
2018-08-19T09:24:38.176Z,121280
2018-08-19T09:25:38.239Z,122848
2018-08-19T09:26:38.253Z,123008
2018-08-19T09:27:38.138Z,123200
2018-08-19T09:28:38.256Z,125568
2018-08-19T09:29:38.151Z,127520
2018-08-19T09:30:38.186Z,128032
2018-08-19T09:31:38.189Z,129920
2018-08-19T09:32:38.193Z,133248
2018-08-19T09:33:38.259Z,135456
2018-08-19T09:34:38.191Z,135136
2018-08-19T09:35:38.266Z,132640
2018-08-19T09:36:38.197Z,128032
2018-08-19T09:37:38.263Z,123840
2018-08-19T09:38:38.191Z,119840
2018-08-19T09:39:38.265Z,121792
2018-08-19T09:40:38.225Z,123808
2018-08-19T09:41:38.159Z,125696
2018-08-19T09:42:38.122Z,126400
2018-08-19T09:43:38.118Z,126624
2018-08-19T09:44:38.165Z,127104
2018-08-19T09:45:38.120Z,128576
2018-08-19T09:46:38.162Z,131552
2018-08-19T09:47:38.199Z,132704
2018-08-19T09:48:38.213Z,133504
2018-08-19T09:49:38.211Z,131872
2018-08-19T09:50:38.170Z,128864
2018-08-19T09:51:38.132Z,125376
2018-08-19T09:52:38.197Z,122528
2018-08-19T09:53:38.259Z,121408
2018-08-19T09:54:38.155Z,122912
2018-08-19T09:55:38.248Z,126336
2018-08-19T09:56:38.247Z,131264
2018-08-19T09:57:38.331Z,133248
2018-08-19T09:58:38.263Z,135584
2018-08-19T09:59:38.225Z,133184
2018-08-19T10:00:38.178Z,132608
2018-08-19T10:01:38.241Z,131808
2018-08-19T10:02:38.282Z,130240
2018-08-19T10:03:38.212Z,130432
2018-08-19T10:04:38.282Z,129952
2018-08-19T10:05:38.209Z,126560
2018-08-19T10:06:38.282Z,125056
2018-08-19T10:07:38.256Z,123744
2018-08-19T10:08:38.294Z,127136
2018-08-19T10:09:38.218Z,131648
2018-08-19T10:10:38.286Z,137280
2018-08-19T10:11:38.213Z,142336
2018-08-19T10:12:38.287Z,143136
2018-08-19T10:13:38.255Z,146016
2018-08-19T10:14:38.288Z,143744
2018-08-19T10:15:38.216Z,136032
2018-08-19T10:16:38.287Z,127904
2018-08-19T10:17:38.228Z,125504
2018-08-19T10:18:38.290Z,123136
2018-08-19T10:19:38.341Z,123904
2018-08-19T10:20:38.217Z,125952
2018-08-19T10:21:38.294Z,129728
2018-08-19T10:22:38.226Z,132384
2018-08-19T10:23:38.294Z,132640
2018-08-19T10:24:38.223Z,132448
2018-08-19T10:25:38.296Z,129792
2018-08-19T10:26:38.294Z,126912
2018-08-19T10:27:38.227Z,126848
2018-08-19T10:28:38.298Z,126016
2018-08-19T10:29:38.232Z,125696
2018-08-19T10:30:38.221Z,122624
2018-08-19T10:31:38.242Z,120640
2018-08-19T10:32:38.305Z,120512
2018-08-19T10:33:38.231Z,122496
2018-08-19T10:34:38.301Z,123648
2018-08-19T10:35:38.232Z,125984
2018-08-19T10:36:38.305Z,128640
2018-08-19T10:37:38.233Z,130336
2018-08-19T10:38:38.193Z,129280
2018-08-19T10:39:38.306Z,125664
2018-08-19T10:40:38.235Z,124896
2018-08-19T10:41:38.319Z,127648
2018-08-19T10:42:38.237Z,129664
2018-08-19T10:43:38.309Z,132480
2018-08-19T10:44:38.239Z,136704
2018-08-19T10:45:38.310Z,142528
2018-08-19T10:46:38.239Z,145600
2018-08-19T10:47:38.315Z,144672
2018-08-19T10:48:38.238Z,143008
2018-08-19T10:49:38.315Z,139488
2018-08-19T10:50:38.317Z,133280
2018-08-19T10:51:38.150Z,131040
2018-08-19T10:52:38.181Z,131040
2018-08-19T10:53:38.275Z,133760
2018-08-19T10:54:38.271Z,139040
2018-08-19T10:55:38.258Z,141920
2018-08-19T10:56:38.178Z,143072
2018-08-19T10:57:38.283Z,139968
2018-08-19T10:58:38.285Z,133984
2018-08-19T10:59:38.187Z,129536
2018-08-19T11:00:38.285Z,128352
2018-08-19T11:01:38.218Z,128960
2018-08-19T11:02:38.283Z,132832
2018-08-19T11:03:38.200Z,133216
2018-08-19T11:04:38.283Z,131136
2018-08-19T11:05:38.289Z,127776
2018-08-19T11:06:38.294Z,122976
2018-08-19T11:07:38.325Z,120224
2018-08-19T11:08:38.261Z,117920
2018-08-19T11:09:38.301Z,118496
2018-08-19T11:10:38.227Z,118880
2018-08-19T11:11:38.204Z,120512
2018-08-19T11:12:38.285Z,123072
2018-08-19T11:13:38.312Z,128896
2018-08-19T11:14:38.257Z,132800
2018-08-19T11:15:38.227Z,136832
2018-08-19T11:16:38.300Z,139040
2018-08-19T11:17:38.273Z,140192
2018-08-19T11:18:38.301Z,141344
2018-08-19T11:19:38.330Z,137472
2018-08-19T11:20:38.295Z,137152
2018-08-19T11:21:38.293Z,138592
2018-08-19T11:22:38.217Z,141056
2018-08-19T11:23:38.299Z,143552
2018-08-19T11:24:38.213Z,144576
2018-08-19T11:25:38.324Z,144000
2018-08-19T11:26:38.282Z,141120
2018-08-19T11:27:38.312Z,139296
2018-08-19T11:28:38.306Z,135776
2018-08-19T11:29:38.223Z,133952
2018-08-19T11:30:38.265Z,132832
2018-08-19T11:31:38.292Z,134368
2018-08-19T11:32:38.271Z,136224
2018-08-19T11:33:38.268Z,136960
2018-08-19T11:34:38.228Z,137472
2018-08-19T11:35:38.245Z,133664
2018-08-19T11:36:38.323Z,127936
2018-08-19T11:37:38.295Z,125792
2018-08-19T11:38:38.288Z,127968
2018-08-19T11:39:38.269Z,129376
2018-08-19T11:40:38.251Z,131360
2018-08-19T11:41:38.353Z,133216
2018-08-19T11:42:38.278Z,134272
2018-08-19T11:43:38.282Z,129856
2018-08-19T11:44:38.352Z,129856
2018-08-19T11:45:38.283Z,131584
2018-08-19T11:46:38.278Z,133984
2018-08-19T11:47:38.353Z,133664
2018-08-19T11:48:38.287Z,134592
2018-08-19T11:49:38.354Z,133760
2018-08-19T11:50:38.285Z,131264
2018-08-19T11:51:38.282Z,130816
2018-08-19T11:52:38.292Z,132544
2018-08-19T11:53:38.360Z,137184
2018-08-19T11:54:38.355Z,140096
2018-08-19T11:55:38.360Z,141152
2018-08-19T11:56:38.281Z,140736
2018-08-19T11:57:38.362Z,140448
2018-08-19T11:58:38.299Z,139168
2018-08-19T11:59:38.287Z,137120
2018-08-19T12:00:38.368Z,139104
2018-08-19T12:01:38.361Z,142144
2018-08-19T12:02:38.258Z,141408
2018-08-19T12:03:38.240Z,139872
2018-08-19T12:04:38.328Z,139104
2018-08-19T12:05:38.333Z,137568
2018-08-19T12:06:38.247Z,136864
2018-08-19T12:07:38.226Z,138208
2018-08-19T12:08:38.267Z,140960
2018-08-19T12:09:38.299Z,141728
2018-08-19T12:10:38.368Z,141600
2018-08-19T12:11:38.296Z,140512
2018-08-19T12:12:38.374Z,138496
2018-08-19T12:13:38.302Z,138976
2018-08-19T12:14:38.372Z,140384
2018-08-19T12:15:38.298Z,141536
2018-08-19T12:16:38.377Z,141568
2018-08-19T12:17:38.301Z,141248
2018-08-19T12:18:38.374Z,139584
2018-08-19T12:19:38.305Z,137408
2018-08-19T12:20:38.380Z,134464
2018-08-19T12:21:38.304Z,131680
2018-08-19T12:22:38.370Z,130080
2018-08-19T12:23:38.278Z,131936
2018-08-19T12:24:38.324Z,137248
2018-08-19T12:25:38.254Z,142112
2018-08-19T12:26:38.279Z,148160
2018-08-19T12:27:38.443Z,148032
2018-08-19T12:28:38.264Z,143808
2018-08-19T12:29:38.370Z,139264
2018-08-19T12:30:38.308Z,136320
2018-08-19T12:31:38.383Z,135104
2018-08-19T12:32:38.323Z,136256
2018-08-19T12:33:38.369Z,138368
2018-08-19T12:34:38.398Z,141056
2018-08-19T12:35:38.311Z,139488
2018-08-19T12:36:38.314Z,137312
2018-08-19T12:37:38.324Z,136480
2018-08-19T12:38:38.374Z,136736
2018-08-19T12:39:38.354Z,135744
2018-08-19T12:40:38.350Z,136576
2018-08-19T12:41:38.351Z,136864
2018-08-19T12:42:38.297Z,139840
2018-08-19T12:43:38.335Z,140736
2018-08-19T12:44:38.289Z,136864
2018-08-19T12:45:38.323Z,132320
2018-08-19T12:46:38.351Z,129760
2018-08-19T12:47:38.373Z,130144
2018-08-19T12:48:38.323Z,132416
2018-08-19T12:49:38.322Z,134688
2018-08-19T12:50:38.295Z,136640
2018-08-19T12:51:38.404Z,133856
2018-08-19T12:52:38.330Z,131008
2018-08-19T12:53:38.399Z,126336
2018-08-19T12:54:38.327Z,121952
2018-08-19T12:55:38.400Z,120384
2018-08-19T12:56:38.326Z,121152
2018-08-19T12:57:38.403Z,121728
2018-08-19T12:58:38.327Z,123616
2018-08-19T12:59:38.401Z,123520
2018-08-19T13:00:38.330Z,121952
2018-08-19T13:01:38.406Z,118656
2018-08-19T13:02:38.335Z,115552
2018-08-19T13:03:38.406Z,116480
2018-08-19T13:04:38.333Z,114944
2018-08-19T13:05:38.408Z,117696
2018-08-19T13:06:38.334Z,124128
2018-08-19T13:07:38.408Z,130400
2018-08-19T13:08:38.335Z,129536
2018-08-19T13:09:38.334Z,127040
2018-08-19T13:10:38.412Z,123296
2018-08-19T13:11:38.342Z,121632
2018-08-19T13:12:38.410Z,124128
2018-08-19T13:13:38.413Z,128960
2018-08-19T13:14:38.342Z,132448
2018-08-19T13:15:38.417Z,134272
2018-08-19T13:16:38.416Z,132992
2018-08-19T13:17:38.347Z,127136